Time;durP1;ratioP1;P1;durP2;ratioP2;P2;SDS_P1;SDS_P2;PMS_P1;PMS_P2;Temp;Humidity;BMP_temperature;BMP_pressure;BME280_temperature;BME280_humidity;BME280_pressure;Samples;Min_cycle;Max_cycle;Signal;HPM_P1;HPM_P2
2021/09/26 00:00:07;;;;;;;7.93;5.00;;;;;;;15.79;77.40;100888.72;5085537;28;20210;-81
2021/09/26 00:02:33;;;;;;;5.57;4.33;;;;;;;15.74;77.24;100888.25;5092818;28;20201;-82
2021/09/26 00:05:00;;;;;;;5.20;4.70;;;;;;;15.71;77.51;100884.97;5089039;28;20278;-80
2021/09/26 00:07:26;;;;;;;5.00;4.50;;;;;;;15.69;77.83;100885.06;5085182;28;20683;-81
2021/09/26 00:09:53;;;;;;;4.70;4.00;;;;;;;15.70;77.86;100885.94;5081288;28;20208;-80
2021/09/26 00:12:21;;;;;;;6.10;4.73;;;;;;;15.68;77.73;100888.75;5092219;28;20229;-81
2021/09/26 00:14:48;;;;;;;5.00;4.30;;;;;;;15.62;77.24;100891.91;5083230;28;20236;-80
2021/09/26 00:17:14;;;;;;;5.30;4.80;;;;;;;15.57;77.12;100886.06;5087698;28;20225;-81
2021/09/26 00:19:41;;;;;;;5.00;4.37;;;;;;;15.52;77.16;100880.19;5087855;28;20211;-80
2021/09/26 00:22:08;;;;;;;7.07;4.93;;;;;;;15.47;77.11;100893.09;5086881;28;20287;-80
2021/09/26 00:24:35;;;;;;;4.77;4.37;;;;;;;15.41;77.23;100885.53;5090501;28;20620;-80
2021/09/26 00:27:01;;;;;;;5.13;4.63;;;;;;;15.36;77.29;100888.59;5085914;28;20221;-81
2021/09/26 00:29:29;;;;;;;5.57;5.07;;;;;;;15.32;77.16;100889.81;5083572;28;20200;-82
2021/09/26 00:31:56;;;;;;;5.00;4.40;;;;;;;15.27;76.93;100890.19;5085480;28;20213;-81
2021/09/26 00:34:22;;;;;;;5.70;4.50;;;;;;;15.22;77.31;100895.06;5094533;28;20589;-82
2021/09/26 00:36:49;;;;;;;5.10;4.60;;;;;;;15.19;77.75;100892.63;5089123;28;20216;-81
2021/09/26 00:39:15;;;;;;;4.83;4.43;;;;;;;15.19;77.91;100895.31;5088410;28;20205;-82
2021/09/26 00:41:42;;;;;;;5.53;4.73;;;;;;;15.17;77.79;100886.53;5091456;28;20205;-83
2021/09/26 00:44:08;;;;;;;5.03;4.53;;;;;;;15.16;78.25;100884.81;5085264;28;20204;-82
2021/09/26 00:46:36;;;;;;;6.63;4.40;;;;;;;15.14;77.81;100883.22;5091531;28;20215;-82
2021/09/26 00:49:03;;;;;;;5.13;4.63;;;;;;;15.11;77.76;100886.16;5081017;28;20211;-82
2021/09/26 00:51:29;;;;;;;4.40;4.00;;;;;;;15.06;78.17;100880.28;5089029;28;20291;-82
2021/09/26 00:53:56;;;;;;;4.57;3.90;;;;;;;15.04;78.29;100892.97;5082743;28;20221;-82
2021/09/26 00:56:23;;;;;;;4.70;4.30;;;;;;;15.00;78.29;100886.16;5085896;28;20221;-81
2021/09/26 00:58:50;;;;;;;5.40;4.50;;;;;;;14.98;78.18;100891.63;5080957;28;20561;-82
2021/09/26 01:01:16;;;;;;;4.97;4.53;;;;;;;14.95;78.19;100883.81;5086452;28;20554;-83
2021/09/26 01:03:44;;;;;;;5.53;4.90;;;;;;;14.94;78.27;100876.75;5083917;28;20197;-82
2021/09/26 01:06:23;;;;;;;6.37;5.33;;;;;;;14.92;78.63;100884.91;5082890;28;20228;-82
2021/09/26 01:09:00;;;;;;;6.40;5.70;;;;;;;14.91;78.71;100883.19;5080397;28;20235;-82
2021/09/26 01:11:40;;;;;;;7.20;5.03;;;;;;;14.89;78.81;100884.28;5085885;28;20196;-81
2021/09/26 01:14:14;;;;;;;4.57;4.17;;;;;;;14.82;78.26;100877.69;5094856;28;20212;-82
2021/09/26 01:17:00;;;;;;;4.93;4.43;;;;;;;14.70;78.07;100890.19;5083425;28;20583;-81
2021/09/26 01:19:45;;;;;;;5.67;5.07;;;;;;;14.62;78.49;100878.38;5095544;28;20205;-82
2021/09/26 01:22:16;;;;;;;5.90;5.30;;;;;;;14.59;79.05;100879.47;5099478;28;20202;-83
2021/09/26 01:25:17;;;;;;;5.57;5.00;;;;;;;14.58;79.00;100881.28;5098579;28;20556;-81
2021/09/26 01:28:09;;;;;;;5.67;5.07;;;;;;;14.57;79.23;100884.94;5084150;28;20209;-79
2021/09/26 01:30:41;;;;;;;5.30;4.77;;;;;;;14.58;79.27;100883.09;5054582;28;20208;-80
2021/09/26 01:33:15;;;;;;;5.80;4.67;;;;;;;14.56;79.66;100880.53;5090611;28;20219;-79
2021/09/26 01:35:52;;;;;;;7.03;5.10;;;;;;;14.54;79.57;100882.47;5089839;28;20695;-79
2021/09/26 01:38:25;;;;;;;5.47;4.97;;;;;;;14.52;79.16;100884.41;5092127;28;20256;-79
2021/09/26 01:40:56;;;;;;;6.77;5.30;;;;;;;14.49;79.64;100876.63;5097036;28;20201;-80
2021/09/26 01:43:28;;;;;;;5.00;4.50;;;;;;;14.47;79.34;100875.91;5097505;28;20231;-80
2021/09/26 01:45:59;;;;;;;5.53;4.87;;;;;;;14.45;79.33;100872.47;5091598;28;20262;-81
2021/09/26 01:48:33;;;;;;;5.10;4.60;;;;;;;14.44;79.46;100878.81;5092771;28;20208;-80
2021/09/26 01:51:02;;;;;;;5.73;5.10;;;;;;;14.41;79.38;100876.34;5093685;28;20202;-81
2021/09/26 01:53:31;;;;;;;4.70;4.30;;;;;;;14.40;79.13;100871.06;5085693;28;20709;-81
2021/09/26 01:55:59;;;;;;;6.90;5.37;;;;;;;14.36;79.16;100874.94;5087383;28;20223;-81
2021/09/26 01:58:26;;;;;;;5.40;4.67;;;;;;;14.32;79.00;100879.72;5084008;28;20215;-81
2021/09/26 02:00:53;;;;;;;7.43;5.20;;;;;;;14.29;79.14;100874.56;5084463;28;20193;-80
2021/09/26 02:03:24;;;;;;;5.10;4.60;;;;;;;14.25;79.24;100883.81;5086868;28;20204;-81
2021/09/26 02:05:50;;;;;;;5.37;4.87;;;;;;;14.21;79.22;100877.81;5084196;28;20229;-82
2021/09/26 02:08:18;;;;;;;5.80;4.90;;;;;;;14.18;78.91;100869.16;5088816;28;20200;-81
2021/09/26 02:10:45;;;;;;;6.17;5.57;;;;;;;14.16;79.19;100869.25;5077568;28;20200;-82
2021/09/26 02:13:14;;;;;;;5.40;4.90;;;;;;;14.15;79.44;100872.09;5087918;28;20230;-81
2021/09/26 02:15:44;;;;;;;5.33;4.83;;;;;;;14.12;79.36;100877.66;5082310;28;20216;-82
2021/09/26 02:18:11;;;;;;;5.13;4.50;;;;;;;14.11;79.58;100878.63;5089109;28;20245;-82
2021/09/26 02:20:40;;;;;;;6.10;5.27;;;;;;;14.09;79.63;100883.25;5078518;28;20196;-82
2021/09/26 02:23:07;;;;;;;6.10;5.03;;;;;;;14.07;79.67;100880.69;5083075;28;20220;-82
2021/09/26 02:25:34;;;;;;;5.60;5.10;;;;;;;14.05;79.37;100884.44;5092251;28;20858;-84
2021/09/26 02:28:02;;;;;;;5.63;4.67;;;;;;;14.01;79.30;100874.91;5084003;28;20230;-84
2021/09/26 02:30:28;;;;;;;6.77;5.40;;;;;;;13.96;78.98;100877.09;5091163;28;20211;-84
2021/09/26 02:32:55;;;;;;;5.53;5.03;;;;;;;13.88;79.39;100881.19;5084251;28;20715;-84
2021/09/26 02:35:22;;;;;;;4.60;4.20;;;;;;;13.80;79.04;100869.31;5081299;28;20244;-83
2021/09/26 02:37:50;;;;;;;5.93;5.03;;;;;;;13.72;79.24;100869.88;5091604;28;20292;-82
2021/09/26 02:40:17;;;;;;;5.60;5.00;;;;;;;13.68;79.40;100878.25;5083772;28;20235;-82
2021/09/26 02:42:52;;;;;;;5.10;4.70;;;;;;;13.64;79.52;100869.56;5091321;28;20200;-82
2021/09/26 02:45:23;;;;;;;5.67;5.17;;;;;;;13.61;79.42;100872.50;5089382;28;20231;-83
2021/09/26 02:48:01;;;;;;;5.90;4.83;;;;;;;13.59;79.34;100865.53;5085590;28;20192;-82
2021/09/26 02:50:28;;;;;;;5.50;5.00;;;;;;;13.56;79.74;100866.63;5087937;28;20567;-82
2021/09/26 02:52:57;;;;;;;5.40;4.90;;;;;;;13.51;79.25;100856.22;5082475;28;20200;-83
2021/09/26 02:55:25;;;;;;;5.37;4.87;;;;;;;13.47;79.20;100856.56;5091276;28;20220;-82
2021/09/26 02:57:52;;;;;;;5.20;4.70;;;;;;;13.44;79.50;100854.09;5093112;28;20543;-84
2021/09/26 03:00:19;;;;;;;5.33;4.73;;;;;;;13.41;79.93;100859.69;5084865;28;20659;-82
2021/09/26 03:02:45;;;;;;;5.20;4.70;;;;;;;13.39;79.96;100850.91;5094638;28;20207;-82
2021/09/26 03:05:13;;;;;;;5.73;4.90;;;;;;;13.37;79.66;100845.69;5090021;28;20207;-82
2021/09/26 03:07:39;;;;;;;6.00;5.33;;;;;;;13.36;79.89;100851.13;5096334;28;20207;-82
2021/09/26 03:10:08;;;;;;;5.20;4.70;;;;;;;13.34;79.91;100853.91;5090206;28;20203;-81
2021/09/26 03:12:35;;;;;;;5.33;4.60;;;;;;;13.33;80.09;100846.00;5086477;28;20275;-81
2021/09/26 03:15:02;;;;;;;5.17;4.67;;;;;;;13.32;80.12;100846.97;5085552;28;20577;-83
2021/09/26 03:17:29;;;;;;;5.20;4.70;;;;;;;13.32;79.96;100850.50;5077696;28;20651;-82
2021/09/26 03:19:56;;;;;;;5.27;4.77;;;;;;;13.31;80.12;100842.56;5097180;28;20209;-83
2021/09/26 03:22:23;;;;;;;7.57;5.43;;;;;;;13.31;80.57;100842.56;5108315;28;20282;-83
2021/09/26 03:24:49;;;;;;;5.43;4.93;;;;;;;13.30;80.45;100838.19;5103846;28;20564;-83
2021/09/26 03:27:17;;;;;;;5.23;4.40;;;;;;;13.28;80.44;100834.75;5082874;28;20740;-83
2021/09/26 03:29:44;;;;;;;5.90;5.27;;;;;;;13.24;80.18;100839.50;5086901;28;20224;-83
2021/09/26 03:32:11;;;;;;;5.30;4.80;;;;;;;13.22;80.28;100832.56;5091452;28;20212;-83
2021/09/26 03:34:38;;;;;;;5.63;4.53;;;;;;;13.19;80.02;100826.44;5086684;28;20314;-83
2021/09/26 03:37:05;;;;;;;5.70;4.93;;;;;;;13.17;80.07;100831.06;5090739;28;20230;-82
2021/09/26 03:39:32;;;;;;;4.97;4.43;;;;;;;13.09;79.26;100827.16;5091373;28;20200;-83
2021/09/26 03:41:58;;;;;;;4.63;4.23;;;;;;;13.00;79.55;100823.34;5086102;28;20204;-83
2021/09/26 03:44:26;;;;;;;4.90;4.37;;;;;;;12.95;79.30;100822.81;5085687;28;20205;-84
2021/09/26 03:46:54;;;;;;;6.00;4.70;;;;;;;12.94;79.90;100828.25;5086644;28;20212;-83
2021/09/26 03:49:20;;;;;;;5.10;4.60;;;;;;;12.90;79.70;100830.28;5082430;28;20569;-82
2021/09/26 03:51:48;;;;;;;5.47;4.70;;;;;;;12.88;80.07;100829.56;5087218;28;20201;-83
2021/09/26 03:54:15;;;;;;;5.43;4.93;;;;;;;12.86;80.06;100823.47;5082735;28;20638;-83
2021/09/26 03:56:42;;;;;;;5.10;4.60;;;;;;;12.84;80.71;100817.38;5083664;28;20231;-83
2021/09/26 03:59:08;;;;;;;5.17;4.63;;;;;;;12.84;80.85;100812.03;5083860;28;20206;-83
2021/09/26 04:01:36;;;;;;;6.87;5.23;;;;;;;12.83;81.24;100827.19;5084800;28;20200;-82
2021/09/26 04:04:02;;;;;;;5.87;5.13;;;;;;;12.82;81.74;100829.97;5086976;28;20199;-82
2021/09/26 04:06:29;;;;;;;10.97;5.57;;;;;;;12.81;81.47;100828.25;5083433;28;20590;-81
2021/09/26 04:08:56;;;;;;;5.57;4.83;;;;;;;12.81;81.93;100825.59;5085204;28;20200;-81
2021/09/26 04:11:22;;;;;;;5.53;4.93;;;;;;;12.81;82.14;100821.09;5085460;28;20583;-83
2021/09/26 04:13:49;;;;;;;8.57;6.10;;;;;;;12.82;82.67;100825.47;5093233;28;20239;-83
2021/09/26 04:16:15;;;;;;;6.97;5.40;;;;;;;12.84;82.64;100825.38;5093784;28;20218;-82
2021/09/26 04:18:43;;;;;;;5.37;4.77;;;;;;;12.84;82.53;100822.72;5096217;28;20776;-82
2021/09/26 04:21:10;;;;;;;5.83;4.67;;;;;;;12.85;82.48;100819.06;5096108;28;20200;-83
2021/09/26 04:23:36;;;;;;;5.47;4.30;;;;;;;12.83;82.66;100821.84;5104826;28;20202;-82
2021/09/26 04:26:03;;;;;;;4.87;4.47;;;;;;;12.80;82.52;100815.88;5096932;28;20224;-81
2021/09/26 04:28:30;;;;;;;4.80;4.30;;;;;;;12.77;82.90;100810.72;5096535;28;20204;-81
2021/09/26 04:30:56;;;;;;;4.80;4.27;;;;;;;12.73;82.82;100807.41;5060581;28;1063609;-82
2021/09/26 04:33:23;;;;;;;5.47;4.97;;;;;;;12.67;82.62;100813.19;5105690;28;20208;-81
2021/09/26 04:35:51;;;;;;;6.80;5.47;;;;;;;12.64;83.04;100815.22;5102768;28;20223;-82
2021/09/26 04:38:17;;;;;;;5.67;4.90;;;;;;;12.62;83.11;100809.13;5099102;28;20207;-82
2021/09/26 04:40:44;;;;;;;6.73;5.60;;;;;;;12.60;83.76;100803.88;5101332;28;20209;-80
2021/09/26 04:43:11;;;;;;;5.90;5.30;;;;;;;12.59;83.80;100802.16;5095500;28;20299;-80
2021/09/26 04:45:37;;;;;;;5.93;5.03;;;;;;;12.58;83.84;100810.28;5096587;28;20220;-81
2021/09/26 04:48:05;;;;;;;4.67;4.13;;;;;;;12.58;83.78;100808.47;5081970;28;20201;-81
2021/09/26 04:50:31;;;;;;;5.23;4.73;;;;;;;12.58;83.90;100810.28;5086230;28;20689;-81
2021/09/26 04:52:59;;;;;;;5.20;4.47;;;;;;;12.58;84.08;100808.47;5090243;28;20211;-81
2021/09/26 04:55:27;;;;;;;7.20;4.90;;;;;;;12.59;84.33;100807.50;5091147;28;21679;-82
2021/09/26 04:57:54;;;;;;;6.43;4.80;;;;;;;12.59;84.33;100807.50;5087087;28;20588;-81
2021/09/26 05:00:22;;;;;;;5.27;4.77;;;;;;;12.60;84.15;100811.03;5091901;28;20739;-81
2021/09/26 05:02:49;;;;;;;5.10;4.70;;;;;;;12.61;84.25;100810.94;5091133;28;20595;-81
2021/09/26 05:05:16;;;;;;;5.23;4.73;;;;;;;12.62;84.66;100812.66;5087183;28;20201;-81
2021/09/26 05:07:42;;;;;;;5.17;4.67;;;;;;;12.64;84.68;100809.88;5085343;28;20211;-81
2021/09/26 05:10:11;;;;;;;5.27;4.77;;;;;;;12.64;84.50;100810.72;5085746;28;20204;-81
2021/09/26 05:12:38;;;;;;;6.30;4.90;;;;;;;12.65;84.70;100812.44;5085910;28;20215;-81
2021/09/26 05:15:05;;;;;;;5.17;4.37;;;;;;;12.66;84.98;100813.31;5079340;28;20227;-80
2021/09/26 05:17:32;;;;;;;5.53;4.90;;;;;;;12.67;84.90;100815.00;5084469;28;20220;-81
2021/09/26 05:19:59;;;;;;;5.33;4.83;;;;;;;12.66;84.86;100807.97;5082905;28;20558;-83
2021/09/26 05:22:26;;;;;;;4.50;4.03;;;;;;;12.65;84.83;100811.59;5086991;28;20205;-83
2021/09/26 05:24:53;;;;;;;4.93;4.50;;;;;;;12.61;84.48;100810.94;5086144;28;20203;-82
2021/09/26 05:27:21;;;;;;;4.90;4.40;;;;;;;12.57;84.44;100819.25;5090054;28;20232;-83
2021/09/26 05:29:47;;;;;;;5.27;4.10;;;;;;;12.56;84.68;100806.88;5081676;28;20667;-83
2021/09/26 05:32:14;;;;;;;5.03;4.37;;;;;;;12.52;84.40;100808.91;5085532;28;20205;-84
2021/09/26 05:34:41;;;;;;;4.90;4.43;;;;;;;12.50;84.54;100808.16;5081930;28;20591;-82
2021/09/26 05:37:07;;;;;;;5.43;4.67;;;;;;;12.49;85.00;100809.13;5085839;28;20566;-84
2021/09/26 05:39:34;;;;;;;5.50;4.33;;;;;;;12.50;85.17;100810.84;5079015;28;20201;-83
2021/09/26 05:42:03;;;;;;;5.00;4.60;;;;;;;12.51;85.36;100809.88;5080313;28;20203;-82
2021/09/26 05:44:31;;;;;;;6.90;5.00;;;;;;;12.52;85.59;100796.41;5080987;28;20236;-83
2021/09/26 05:46:57;;;;;;;7.10;4.33;;;;;;;12.56;85.52;100804.19;5089756;28;20223;-82
2021/09/26 05:49:24;;;;;;;5.40;4.90;;;;;;;12.59;85.97;100802.16;5095730;28;20207;-83
2021/09/26 05:51:51;;;;;;;8.20;4.60;;;;;;;12.63;86.16;100794.81;5087113;28;20204;-82
2021/09/26 05:54:17;;;;;;;5.50;5.00;;;;;;;12.65;86.22;100801.75;5084606;28;20220;-83
2021/09/26 05:56:44;;;;;;;4.97;4.47;;;;;;;12.68;86.24;100803.38;5077187;28;20239;-82
2021/09/26 05:59:10;;;;;;;6.13;5.27;;;;;;;12.69;86.42;100797.91;5080514;28;20206;-83
2021/09/26 06:01:38;;;;;;;8.27;4.77;;;;;;;12.71;86.65;100804.00;5078238;28;20710;-82
2021/09/26 06:04:05;;;;;;;5.07;4.63;;;;;;;12.73;86.69;100798.53;5077331;28;20317;-82
2021/09/26 06:06:32;;;;;;;5.70;4.87;;;;;;;12.74;86.47;100798.44;5077240;28;20223;-80
2021/09/26 06:08:58;;;;;;;5.80;5.13;;;;;;;12.77;86.69;100789.34;5078613;28;20206;-84
2021/09/26 06:11:25;;;;;;;7.00;5.33;;;;;;;12.79;86.76;100790.94;5079049;28;20213;-81
2021/09/26 06:13:51;;;;;;;6.10;5.23;;;;;;;12.83;86.97;100794.28;5085868;28;20205;-81
2021/09/26 06:16:18;;;;;;;6.10;5.50;;;;;;;12.87;87.42;100793.09;5079780;28;20227;-82
2021/09/26 06:18:46;;;;;;;6.70;6.00;;;;;;;12.93;87.35;100798.00;5078894;28;20218;-82
2021/09/26 06:21:12;;;;;;;7.00;6.00;;;;;;;12.99;87.84;100789.53;5079253;28;20712;-82
2021/09/26 06:23:39;;;;;;;7.10;5.73;;;;;;;13.07;88.00;100795.22;5080996;28;20658;-83
2021/09/26 06:26:05;;;;;;;6.30;5.70;;;;;;;13.14;88.44;100799.13;5079319;28;20220;-82
2021/09/26 06:28:32;;;;;;;7.13;5.93;;;;;;;13.20;88.92;100796.06;5081323;28;20205;-80
2021/09/26 06:30:58;;;;;;;7.00;6.17;;;;;;;13.27;88.62;100788.44;5084419;28;20235;-82
2021/09/26 06:33:26;;;;;;;6.70;5.13;;;;;;;13.35;89.19;100787.91;5080488;28;20569;-82
2021/09/26 06:35:54;;;;;;;7.03;5.40;;;;;;;13.43;88.99;100788.22;5079260;28;20236;-81
2021/09/26 06:38:21;;;;;;;6.57;5.33;;;;;;;13.49;89.26;100791.28;5074985;28;20209;-81
2021/09/26 06:40:47;;;;;;;6.03;5.17;;;;;;;13.57;89.64;100790.72;5074910;28;20207;-82
2021/09/26 06:43:14;;;;;;;6.00;4.90;;;;;;;13.63;89.66;100789.38;5081630;28;20219;-82
2021/09/26 06:45:40;;;;;;;6.83;5.30;;;;;;;13.70;89.42;100793.34;5078419;28;20719;-82
2021/09/26 06:48:09;;;;;;;6.17;5.57;;;;;;;13.77;89.41;100787.44;5077645;28;20205;-81
2021/09/26 06:50:36;;;;;;;6.10;5.50;;;;;;;13.84;89.58;100804.72;5077235;28;20629;-82
2021/09/26 06:53:04;;;;;;;5.67;5.10;;;;;;;13.89;89.84;100799.03;5074711;28;20204;-82
2021/09/26 06:55:33;;;;;;;7.37;5.50;;;;;;;13.94;89.25;100804.06;5082314;28;20229;-81
2021/09/26 06:58:00;;;;;;;6.47;5.50;;;;;;;13.99;89.55;100818.78;5082405;28;20930;-81
2021/09/26 07:00:26;;;;;;;6.10;5.47;;;;;;;14.05;89.76;100812.97;5083639;28;20212;-82
2021/09/26 07:02:59;;;;;;;6.20;5.60;;;;;;;14.10;89.31;100808.13;5079991;28;20205;-82
2021/09/26 07:05:26;;;;;;;5.73;5.13;;;;;;;14.16;89.26;100809.47;5079745;28;20228;-82
2021/09/26 07:07:52;;;;;;;5.87;5.23;;;;;;;14.21;89.25;100815.34;5087695;28;20840;-82
2021/09/26 07:10:20;;;;;;;5.30;4.70;;;;;;;14.26;89.55;100807.81;5088035;28;20208;-82
2021/09/26 07:12:47;;;;;;;5.83;5.23;;;;;;;14.31;89.33;100804.81;5091174;28;20208;-81
2021/09/26 07:15:14;;;;;;;7.40;5.53;;;;;;;14.38;89.10;100814.06;5084286;28;20231;-81
2021/09/26 07:17:40;;;;;;;6.30;5.43;;;;;;;14.45;89.61;100816.19;5081894;28;20221;-81
2021/09/26 07:20:11;;;;;;;6.80;6.00;;;;;;;14.53;89.51;100826.31;5087969;28;20295;-82
2021/09/26 07:22:40;;;;;;;6.63;5.37;;;;;;;14.59;89.17;100824.03;5084873;28;20189;-81
2021/09/26 07:25:08;;;;;;;5.83;4.83;;;;;;;14.67;89.21;100819.91;5082787;28;20233;-82
2021/09/26 07:27:36;;;;;;;7.00;5.10;;;;;;;14.74;88.65;100821.13;5086479;28;20196;-81
2021/09/26 07:30:03;;;;;;;6.40;5.63;;;;;;;14.82;88.65;100824.06;5086482;28;20204;-81
2021/09/26 07:32:30;;;;;;;5.57;5.07;;;;;;;14.90;89.10;100824.31;5088082;28;20283;-82
2021/09/26 07:34:56;;;;;;;7.07;5.40;;;;;;;14.99;89.05;100836.16;5085392;28;20217;-82
2021/09/26 07:37:23;;;;;;;6.50;5.03;;;;;;;15.09;88.58;100832.63;5085973;28;20229;-80
2021/09/26 07:39:49;;;;;;;5.70;5.10;;;;;;;15.17;88.38;100835.56;5085593;28;20201;-80
2021/09/26 07:42:25;;;;;;;6.03;5.43;;;;;;;15.24;88.41;100831.38;5085540;28;20209;-81
2021/09/26 07:44:53;;;;;;;5.17;4.70;;;;;;;15.35;88.24;100835.91;5084025;28;20196;-81
2021/09/26 07:47:19;;;;;;;7.30;4.50;;;;;;;15.46;88.12;100833.22;5088144;28;20236;-80
2021/09/26 07:49:46;;;;;;;4.63;4.13;;;;;;;15.57;87.85;100830.56;5085513;28;20663;-81
2021/09/26 07:52:13;;;;;;;4.23;3.60;;;;;;;15.70;87.83;100837.59;5086169;28;20207;-83
2021/09/26 07:54:39;;;;;;;4.00;3.57;;;;;;;15.80;87.54;100825.13;5084223;28;20741;-81
2021/09/26 07:57:06;;;;;;;5.53;4.10;;;;;;;15.89;87.38;100835.97;5085484;28;20311;-81
2021/09/26 07:59:33;;;;;;;4.37;3.50;;;;;;;16.03;86.99;100831.28;5085581;28;20204;-82
2021/09/26 08:02:00;;;;;;;3.83;3.50;;;;;;;16.11;86.40;100831.50;5086257;28;20205;-83
2021/09/26 08:04:28;;;;;;;4.33;3.83;;;;;;;16.17;85.95;100828.28;5089801;28;20201;-81
2021/09/26 08:06:55;;;;;;;4.90;4.40;;;;;;;16.23;85.48;100831.31;5089338;28;20225;-80
2021/09/26 08:09:21;;;;;;;5.87;4.83;;;;;;;16.31;85.21;100836.03;5088217;28;20211;-82
2021/09/26 08:11:48;;;;;;;6.40;5.20;;;;;;;16.39;84.93;100838.94;5087831;28;20206;-83
2021/09/26 08:14:14;;;;;;;6.00;4.60;;;;;;;16.46;84.37;100833.91;5090053;28;20197;-82
2021/09/26 08:16:41;;;;;;;4.70;4.20;;;;;;;16.57;84.22;100823.06;5082022;28;20708;-81
2021/09/26 08:19:09;;;;;;;5.30;4.80;;;;;;;16.70;83.99;100830.97;5084448;28;20207;-82
2021/09/26 08:21:35;;;;;;;5.97;4.83;;;;;;;16.85;83.93;100824.25;5078362;28;20209;-85
2021/09/26 08:24:06;;;;;;;6.67;4.30;;;;;;;17.01;83.67;100832.72;5081605;28;20207;-84
2021/09/26 08:26:32;;;;;;;4.47;4.03;;;;;;;17.14;83.11;100819.91;5078765;28;20289;-84
2021/09/26 08:28:59;;;;;;;6.83;4.47;;;;;;;17.29;82.33;100831.13;5078968;28;20231;-83
2021/09/26 08:31:26;;;;;;;4.80;3.93;;;;;;;17.46;82.04;100816.19;5084613;28;20223;-84
2021/09/26 08:33:55;;;;;;;4.40;4.00;;;;;;;17.64;81.28;100817.25;5082880;28;20285;-84
2021/09/26 08:36:27;;;;;;;5.43;4.10;;;;;;;17.82;80.40;100812.88;5083477;28;20695;-84
2021/09/26 08:38:54;;;;;;;4.70;3.93;;;;;;;17.99;79.82;100809.50;5083756;28;20250;-84
2021/09/26 08:41:21;;;;;;;6.03;4.53;;;;;;;18.16;78.85;100812.47;5084093;28;21146;-82
2021/09/26 08:43:48;;;;;;;4.93;4.43;;;;;;;18.31;77.73;100813.75;5083716;28;20208;-83
2021/09/26 08:46:15;;;;;;;3.93;3.53;;;;;;;18.41;76.82;100814.63;5083063;28;20225;-83
2021/09/26 08:48:42;;;;;;;5.83;3.23;;;;;;;18.52;75.82;100819.84;5083395;28;20207;-83
2021/09/26 08:51:09;;;;;;;5.43;3.43;;;;;;;18.64;75.18;100816.00;5084731;28;20262;-84
2021/09/26 08:53:37;;;;;;;3.83;3.40;;;;;;;18.78;74.55;100812.03;5080309;28;20229;-82
2021/09/26 08:56:04;;;;;;;4.20;3.50;;;;;;;18.93;74.41;100805.16;5080869;28;20238;-84
2021/09/26 08:58:31;;;;;;;4.70;3.30;;;;;;;19.13;73.89;100815.88;5075660;28;20206;-83
2021/09/26 09:00:57;;;;;;;5.27;4.13;;;;;;;19.30;72.88;100815.97;5080223;28;20208;-81
2021/09/26 09:03:24;;;;;;;4.10;3.70;;;;;;;19.46;71.70;100812.59;5080392;28;20209;-81
2021/09/26 09:05:52;;;;;;;4.27;3.87;;;;;;;19.64;70.60;100809.97;5084612;28;20222;-81
2021/09/26 09:08:24;;;;;;;3.63;3.33;;;;;;;19.79;69.85;100805.75;5085366;28;20206;-83
2021/09/26 09:10:54;;;;;;;5.10;3.73;;;;;;;19.98;69.18;100802.06;5082250;28;20212;-83
2021/09/26 09:13:28;;;;;;;4.70;3.70;;;;;;;20.15;68.25;100800.34;5084663;28;20215;-83
2021/09/26 09:15:56;;;;;;;4.00;3.60;;;;;;;20.31;67.92;100803.19;5085592;28;20228;-82
2021/09/26 09:18:23;;;;;;;4.03;3.63;;;;;;;20.47;67.25;100806.06;5081517;28;20230;-82
2021/09/26 09:20:51;;;;;;;5.73;3.70;;;;;;;20.64;66.92;100801.63;5079325;28;20287;-82
2021/09/26 09:23:20;;;;;;;4.37;3.97;;;;;;;20.82;66.45;100796.16;5078180;28;20223;-82
2021/09/26 09:25:49;;;;;;;3.85;3.42;;;;;;;20.98;65.82;100790.84;5085195;28;20255;-81
2021/09/26 09:28:19;;;;;;;4.22;3.63;;;;;;;21.11;65.06;100785.84;5079785;28;20211;-81
2021/09/26 09:30:47;;;;;;;3.95;3.55;;;;;;;21.28;64.64;100784.94;5082300;28;20212;-82
2021/09/26 09:33:14;;;;;;;4.78;3.65;;;;;;;21.41;63.82;100777.19;5086114;28;20203;-83
2021/09/26 09:35:47;;;;;;;5.95;4.03;;;;;;;21.54;63.38;100784.00;5081747;28;20223;-82
2021/09/26 09:38:18;;;;;;;4.85;3.80;;;;;;;21.67;62.90;100779.84;5087546;28;20951;-83
2021/09/26 09:40:47;;;;;;;4.78;4.05;;;;;;;21.74;62.29;100767.28;5083038;28;20203;-82
2021/09/26 09:43:14;;;;;;;6.72;3.97;;;;;;;21.86;62.16;100775.94;5085444;28;20200;-85
2021/09/26 09:45:52;;;;;;;4.60;4.20;;;;;;;21.97;61.95;100774.78;5084477;28;20209;-87
2021/09/26 09:48:37;;;;;;;3.90;3.50;;;;;;;22.09;61.59;100768.91;5082671;28;20706;-82
2021/09/26 09:51:06;;;;;;;4.63;4.22;;;;;;;22.20;60.84;100766.88;5077884;28;20306;-84
2021/09/26 09:53:41;;;;;;;5.75;4.00;;;;;;;22.29;60.82;100769.41;5083523;28;20202;-83
2021/09/26 09:56:14;;;;;;;4.97;4.15;;;;;;;22.38;60.38;100776.53;5082230;28;20677;-80
2021/09/26 09:58:43;;;;;;;5.68;3.90;;;;;;;22.47;59.84;100780.09;5083429;28;20195;-81
2021/09/26 10:01:17;;;;;;;4.18;3.78;;;;;;;22.53;59.66;100790.28;5084959;28;20210;-81
2021/09/26 10:03:47;;;;;;;4.45;3.60;;;;;;;22.61;59.59;100786.69;5084098;28;20557;-82
2021/09/26 10:06:32;;;;;;;4.30;3.90;;;;;;;22.65;59.01;100785.31;5078000;28;20217;-82
2021/09/26 10:09:03;;;;;;;3.85;3.38;;;;;;;22.71;58.90;100781.94;5087883;28;20205;-81
2021/09/26 10:11:32;;;;;;;4.40;4.00;;;;;;;22.78;58.48;100782.94;5082954;28;20277;-83
2021/09/26 10:14:00;;;;;;;4.47;3.80;;;;;;;22.84;58.33;100779.56;5078942;28;20259;-81
2021/09/26 10:16:29;;;;;;;3.97;3.47;;;;;;;22.89;57.60;100776.31;5082749;28;20231;-84
2021/09/26 10:18:56;;;;;;;4.40;3.95;;;;;;;22.94;57.42;100765.75;5081015;28;20671;-84
2021/09/26 10:21:23;;;;;;;3.92;3.63;;;;;;;23.00;57.48;100784.09;5082162;28;20211;-84
2021/09/26 10:23:53;;;;;;;4.15;3.85;;;;;;;23.06;57.21;100780.69;5087486;28;20200;-82
2021/09/26 10:26:24;;;;;;;3.80;3.42;;;;;;;23.12;56.93;100780.81;5076339;28;20281;-84
2021/09/26 10:28:52;;;;;;;4.38;3.45;;;;;;;23.20;57.20;100772.66;5074880;28;20201;-85
2021/09/26 10:31:20;;;;;;;4.10;3.70;;;;;;;23.28;56.93;100774.50;5083481;28;20221;-84
2021/09/26 10:33:52;;;;;;;4.20;3.90;;;;;;;23.38;56.48;100779.69;5080791;28;20196;-85
2021/09/26 10:36:22;;;;;;;4.05;3.65;;;;;;;23.42;56.47;100784.63;5077601;28;20231;-83
2021/09/26 10:38:52;;;;;;;4.40;4.00;;;;;;;23.47;56.29;100778.63;5079831;28;20634;-83
2021/09/26 10:41:19;;;;;;;3.90;3.60;;;;;;;23.55;56.28;100773.19;5080228;28;20295;-83
2021/09/26 10:43:47;;;;;;;3.80;3.50;;;;;;;23.60;56.17;100769.94;5079103;28;20207;-83
2021/09/26 10:46:17;;;;;;;4.28;3.88;;;;;;;23.67;56.34;100771.75;5079756;28;20236;-83
2021/09/26 10:49:15;;;;;;;4.38;3.97;;;;;;;23.77;55.87;100777.81;5080315;28;20198;-84
2021/09/26 10:51:54;;;;;;;4.82;4.00;;;;;;;23.81;55.79;100781.03;5082233;28;20222;-82
2021/09/26 10:54:36;;;;;;;4.40;3.90;;;;;;;23.87;55.07;100773.00;5079717;28;20627;-83
2021/09/26 10:57:27;;;;;;;4.30;3.88;;;;;;;23.89;55.26;100770.94;5085081;28;20288;-84
2021/09/26 10:59:56;;;;;;;4.15;3.58;;;;;;;23.92;55.30;100769.75;5076837;28;20201;-82
2021/09/26 11:02:42;;;;;;;4.10;3.60;;;;;;;23.98;55.28;100770.91;5079346;28;20262;-84
2021/09/26 11:05:35;;;;;;;4.60;4.07;;;;;;;24.04;55.30;100770.16;5078087;28;20601;-84
2021/09/26 11:08:03;;;;;;;4.55;3.90;;;;;;;24.07;54.50;100762.47;5085432;28;20823;-84
2021/09/26 11:10:40;;;;;;;4.13;3.72;;;;;;;24.10;54.83;100759.41;5083348;28;20196;-83
2021/09/26 11:13:12;;;;;;;5.18;4.78;;;;;;;24.18;54.43;100766.66;5078337;28;20228;-85
2021/09/26 11:16:04;;;;;;;8.00;4.57;;;;;;;24.27;54.24;100759.28;5086662;28;20624;-83
2021/09/26 11:18:48;;;;;;;4.57;3.92;;;;;;;24.34;54.32;100754.81;5078096;28;20205;-84
2021/09/26 11:21:49;;;;;;;5.70;4.00;;;;;;;24.36;54.17;100753.63;5081612;28;20211;-84
2021/09/26 11:24:31;;;;;;;4.28;3.88;;;;;;;24.46;54.41;100753.34;5111508;28;20199;-84
2021/09/26 11:27:22;;;;;;;4.53;3.92;;;;;;;24.53;54.63;100757.03;5113594;28;20224;-83
2021/09/26 11:30:28;;;;;;;4.13;3.72;;;;;;;24.62;54.51;100755.06;5084910;28;20650;-83
2021/09/26 11:33:04;;;;;;;4.05;3.65;;;;;;;24.68;53.69;100752.44;5085521;28;20204;-84